Denver, CO

6:21 AM MDT on August 24, 2016 (GMT -0600)
Geography and Env. Sciences, CU Denver | | Change Station

Elev 5225 ft 39.75 °N, 105.00 °W | Updated 60 seconds ago

Overcast
Overcast
64.7 °F
Feels Like 64.7 °F
N
3.0
Wind Variable Wind from ESE
Gusts 7.0 mph

Today
High -- | Low -- °F
--% Chance of Precip.
Yesterday
High -- | Low -- °F
Precip. -- in
Pressure 30.01 in
Visibility 10.0 miles
Clouds Mostly Cloudy 9000 ft
Overcast 11000 ft
Dew Point 46 °F
Humidity 50%
Rainfall 0.00 in
Snow Depth Not available.
6:21 AM 7:42 PM
Waning Gibbous, 57% visible
METAR KAPA 241153Z 21004KT 10SM BKN090 OVC110 17/05 A3020 RMK AO2 SLP163 T01720050 10172 20150 53001
Pressure 30.01 in
Visibility 10.0 miles
Clouds Mostly Cloudy 9000 ft
Overcast 11000 ft
Dew Point 46 °F
Humidity 50%
Rainfall 0.00 in
Snow Depth Not available.
6:21 AM 7:42 PM
Waning Gibbous, 57% visible
METAR KAPA 241153Z 21004KT 10SM BKN090 OVC110 17/05 A3020 RMK AO2 SLP163 T01720050 10172 20150 53001

10-Day Weather Forecast

Almanac

Astronomy

Aug. 24, 2016 Rise Set
Actual Time
Civil Twilight
Nautical Twilight
Astronomical Twilight
Moon
Length of Visible Light
Length of Day
Tomorrow will be .
, % of the Moon is Illuminated

Today's Extremes

State Highs State Lows

Community

WunderPhotos

Upload Photos

1,934,579 photos uploaded!

WunderBlog® & News

Nearby

Air Quality

  Air Quality AQ Index Pollutant
Not available.

Snow Depth

Station Depth Elevation

Earthquake Activity

City Distance Mag. Time & Date
Minimum magnitude displayed is 2.5.

Coastal Water Temperatures

Place Temperature

Stations

Nearby Weather Stations

Station Location Temp. Windchill Dew Point Humidity Wind Precip. Elev Updated Type
                   

Watches & Warnings

There are currently no watches in effect.